createdAt,value
2018-02-20T00:01:46.346Z,-2.00
2018-02-20T00:04:13.836Z,-2.10
2018-02-20T00:06:42.980Z,-1.90
2018-02-20T00:09:10.452Z,-2.00
2018-02-20T00:11:38.676Z,-2.10
2018-02-20T00:14:07.075Z,-2.10
2018-02-20T00:16:34.570Z,-2.20
2018-02-20T00:19:02.161Z,-2.20
2018-02-20T00:21:29.665Z,-2.30
2018-02-20T00:24:00.901Z,-2.30
2018-02-20T00:26:28.377Z,-2.30
2018-02-20T00:28:56.863Z,-2.30
2018-02-20T00:31:25.105Z,-2.30
2018-02-20T00:33:52.557Z,-2.30
2018-02-20T00:36:20.041Z,-2.30
2018-02-20T00:38:51.787Z,-2.40
2018-02-20T00:41:19.249Z,-2.40
2018-02-20T00:43:46.721Z,-2.40
2018-02-20T00:46:14.929Z,-2.60
2018-02-20T00:48:42.443Z,-2.60
2018-02-20T00:51:10.828Z,-2.70
2018-02-20T00:53:38.441Z,-2.70
2018-02-20T00:56:05.904Z,-2.70
2018-02-20T00:58:33.851Z,-2.80
2018-02-20T01:01:01.355Z,-2.80
2018-02-20T01:03:28.829Z,-2.80
2018-02-20T01:05:56.297Z,-2.90
2018-02-20T01:08:24.703Z,-2.90
2018-02-20T01:10:52.198Z,-2.90
2018-02-20T01:13:19.649Z,-3.00
2018-02-20T01:15:47.114Z,-2.90
2018-02-20T01:18:14.573Z,-2.90
2018-02-20T01:20:42.166Z,-2.80
2018-02-20T01:23:09.609Z,-2.70
2018-02-20T01:25:39.005Z,-2.30
2018-02-20T01:28:06.483Z,-2.30
2018-02-20T01:30:34.148Z,-2.20
2018-02-20T01:33:01.800Z,-2.10
2018-02-20T01:35:29.272Z,-1.80
2018-02-20T01:37:58.416Z,-1.50
2018-02-20T01:40:25.897Z,-1.50
2018-02-20T01:42:53.379Z,-1.40
2018-02-20T01:45:20.823Z,-1.30
2018-02-20T01:47:48.268Z,-1.30
2018-02-20T01:50:16.661Z,-1.30
2018-02-20T01:52:44.324Z,-1.30
2018-02-20T01:55:11.764Z,-1.20
2018-02-20T01:57:40.753Z,-1.30
2018-02-20T02:00:08.225Z,-1.20
2018-02-20T02:02:36.240Z,-1.20
2018-02-20T02:05:03.696Z,-1.10
2018-02-20T02:07:31.176Z,-1.00
2018-02-20T02:10:02.121Z,-1.00
2018-02-20T02:12:29.614Z,-1.00
2018-02-20T02:14:57.080Z,-1.00
2018-02-20T02:17:24.592Z,-1.00
2018-02-20T02:19:52.054Z,-1.00
2018-02-20T02:22:20.508Z,-1.00
2018-02-20T02:24:48.736Z,-0.70
2018-02-20T02:27:16.193Z,-0.80
2018-02-20T02:29:43.763Z,-0.80
2018-02-20T02:32:12.010Z,-0.70
2018-02-20T02:34:40.127Z,-0.80
2018-02-20T02:37:07.770Z,-0.80
2018-02-20T02:39:36.037Z,-0.80
2018-02-20T02:42:05.231Z,-0.80
2018-02-20T02:44:35.131Z,-0.90
2018-02-20T02:47:02.609Z,-0.90
2018-02-20T02:49:30.089Z,-0.80
2018-02-20T02:51:57.793Z,-0.80
2018-02-20T02:54:25.260Z,-0.90
2018-02-20T02:56:53.641Z,-0.90
2018-02-20T02:59:21.137Z,-0.90
2018-02-20T03:01:49.348Z,-1.10
2018-02-20T03:04:16.835Z,-1.10
2018-02-20T03:06:44.289Z,-1.20
2018-02-20T03:09:12.678Z,-1.30
2018-02-20T03:11:40.165Z,-1.30
2018-02-20T03:14:07.618Z,-1.30
2018-02-20T03:16:35.095Z,-1.20
2018-02-20T03:19:02.565Z,-1.20
2018-02-20T03:21:30.102Z,-1.30
2018-02-20T03:23:57.566Z,-1.30
2018-02-20T03:26:25.194Z,-1.40
2018-02-20T03:28:52.656Z,-1.50
2018-02-20T03:31:21.967Z,-1.70
2018-02-20T03:33:49.421Z,-1.70
2018-02-20T03:36:16.875Z,-1.90
2018-02-20T03:38:44.400Z,-2.00
2018-02-20T03:41:12.100Z,-2.10
2018-02-20T03:43:40.841Z,-2.10
2018-02-20T03:46:08.307Z,-2.20
2018-02-20T03:48:35.932Z,-2.20
2018-02-20T03:51:03.472Z,-2.20
2018-02-20T03:53:30.988Z,-2.40
2018-02-20T03:55:58.432Z,-2.40
2018-02-20T03:58:25.883Z,-2.50
2018-02-20T04:00:54.832Z,-2.70
2018-02-20T04:03:22.276Z,-2.70
2018-02-20T04:05:50.551Z,-2.80
2018-02-20T04:08:18.457Z,-2.80
2018-02-20T04:10:45.938Z,-2.70
2018-02-20T04:13:21.383Z,-2.80
2018-02-20T04:15:50.231Z,-2.80
2018-02-20T04:18:19.420Z,-2.90
2018-02-20T04:20:46.879Z,-2.90
2018-02-20T04:23:14.372Z,-2.90
2018-02-20T04:25:41.944Z,-2.90
2018-02-20T04:28:09.401Z,-2.90
2018-02-20T04:30:36.998Z,-2.90
2018-02-20T04:33:04.564Z,-2.80
2018-02-20T04:35:33.123Z,-2.80
2018-02-20T04:38:01.453Z,-2.70
2018-02-20T04:40:28.931Z,-2.80
2018-02-20T04:43:00.385Z,-2.80
2018-02-20T04:45:27.863Z,-2.80
2018-02-20T04:47:56.878Z,-2.80
2018-02-20T04:50:24.339Z,-2.80
2018-02-20T04:52:52.820Z,-2.90
2018-02-20T04:55:21.070Z,-3.20
2018-02-20T04:57:51.622Z,-3.20
2018-02-20T05:00:19.121Z,-3.40
2018-02-20T05:02:48.041Z,-3.40
2018-02-20T05:05:15.549Z,-3.50
2018-02-20T05:07:43.028Z,-3.40
2018-02-20T05:10:10.507Z,-3.50
2018-02-20T05:12:37.976Z,-3.60
2018-02-20T05:15:05.430Z,-3.60
2018-02-20T05:17:32.920Z,-3.50
2018-02-20T05:20:01.473Z,-3.50
2018-02-20T05:22:28.913Z,-3.50
2018-02-20T05:24:56.397Z,-3.60
2018-02-20T05:27:23.845Z,-3.70
2018-02-20T05:29:51.463Z,-3.80
2018-02-20T05:32:18.940Z,-3.80
2018-02-20T05:34:46.884Z,-3.70
2018-02-20T05:37:15.164Z,-3.70
2018-02-20T05:39:42.652Z,-3.60
2018-02-20T05:42:10.085Z,-3.50
2018-02-20T05:44:37.660Z,-3.40
2018-02-20T05:47:05.220Z,-3.40
2018-02-20T05:49:34.956Z,-3.20
2018-02-20T05:52:02.406Z,-3.30
2018-02-20T05:54:29.869Z,-3.20
2018-02-20T05:56:57.688Z,-3.20
2018-02-20T05:59:29.064Z,-3.10
2018-02-20T06:01:56.673Z,-3.10
2018-02-20T06:04:25.203Z,-3.10
2018-02-20T06:06:52.661Z,-3.10
2018-02-20T06:09:20.105Z,-3.20
2018-02-20T06:11:47.589Z,-3.20
2018-02-20T06:14:18.103Z,-3.20
2018-02-20T06:16:45.560Z,-3.20
2018-02-20T06:19:13.254Z,-3.20
2018-02-20T06:21:40.887Z,-3.10
2018-02-20T06:24:08.351Z,-3.00
2018-02-20T06:26:35.833Z,-2.90
2018-02-20T06:29:04.048Z,-2.70
2018-02-20T06:31:31.528Z,-2.70
2018-02-20T06:33:59.050Z,-2.60
2018-02-20T06:36:27.980Z,-2.30
2018-02-20T06:38:55.436Z,-2.40
2018-02-20T06:41:24.930Z,-2.20
2018-02-20T06:43:54.330Z,-2.20
2018-02-20T06:46:22.274Z,-2.10
2018-02-20T06:48:49.878Z,-2.10
2018-02-20T06:51:17.329Z,-2.20
2018-02-20T06:53:44.840Z,-2.20
2018-02-20T06:56:12.305Z,-2.20
2018-02-20T06:58:39.810Z,-2.20
2018-02-20T07:01:07.289Z,-2.10
2018-02-20T07:03:35.686Z,-2.00
2018-02-20T07:06:03.918Z,-1.90
2018-02-20T07:08:31.548Z,-1.90
2018-02-20T07:10:59.236Z,-1.90
2018-02-20T07:13:26.696Z,-1.80
2018-02-20T07:15:54.723Z,-1.80
2018-02-20T07:18:22.190Z,-1.80
2018-02-20T07:20:49.688Z,-1.80
2018-02-20T07:23:17.172Z,-1.70
2018-02-20T07:25:44.657Z,-1.60
2018-02-20T07:28:12.203Z,-1.50
2018-02-20T07:30:43.836Z,-1.50
2018-02-20T07:33:11.289Z,-1.50
2018-02-20T07:35:38.845Z,-1.60
2018-02-20T07:38:06.288Z,-1.60
2018-02-20T07:40:34.449Z,-1.60
2018-02-20T07:43:01.913Z,-1.40
2018-02-20T07:45:29.380Z,-1.40
2018-02-20T07:47:56.840Z,-1.30
2018-02-20T07:50:24.292Z,-1.20
2018-02-20T07:52:53.236Z,-1.10
2018-02-20T07:55:20.709Z,-1.10
2018-02-20T07:57:48.196Z,-1.00
2018-02-20T08:00:15.675Z,-1.10
2018-02-20T08:02:43.169Z,-1.10
2018-02-20T08:05:10.624Z,-0.90
2018-02-20T08:07:38.092Z,-1.00
2018-02-20T08:10:07.021Z,-1.00
2018-02-20T08:12:34.498Z,-1.00
2018-02-20T08:15:01.985Z,-0.80
2018-02-20T08:17:29.491Z,-0.70
2018-02-20T08:19:57.203Z,-0.60
2018-02-20T08:22:24.840Z,-0.50
2018-02-20T08:24:52.327Z,-0.40
2018-02-20T08:27:21.068Z,-0.40
2018-02-20T08:29:48.532Z,-0.40
2018-02-20T08:32:16.008Z,-0.30
2018-02-20T08:34:43.461Z,-0.20
2018-02-20T08:37:11.818Z,0.00
2018-02-20T08:39:40.635Z,0.00
2018-02-20T08:42:09.786Z,0.20
2018-02-20T08:44:37.253Z,0.20
2018-02-20T08:47:04.701Z,0.30
2018-02-20T08:49:32.201Z,0.30
2018-02-20T08:51:59.701Z,0.40
2018-02-20T08:54:27.201Z,0.40
2018-02-20T08:56:54.689Z,0.40
2018-02-20T08:59:22.172Z,0.30
2018-02-20T09:01:52.520Z,0.20
2018-02-20T09:04:19.981Z,0.30
2018-02-20T09:06:48.376Z,0.40
2018-02-20T09:09:15.818Z,0.50
2018-02-20T09:11:43.276Z,0.80
2018-02-20T09:14:10.756Z,0.90
2018-02-20T09:16:38.203Z,0.80
2018-02-20T09:19:05.708Z,0.80
2018-02-20T09:21:33.168Z,1.10
2018-02-20T09:24:00.674Z,1.20
2018-02-20T09:26:28.122Z,1.20
2018-02-20T09:28:57.340Z,1.30
2018-02-20T09:31:25.429Z,1.30
2018-02-20T09:33:52.870Z,1.50
2018-02-20T09:36:20.921Z,1.50
2018-02-20T09:38:48.372Z,1.50
2018-02-20T09:41:15.848Z,1.70
2018-02-20T09:43:43.286Z,1.70
2018-02-20T09:46:10.793Z,1.70
2018-02-20T09:48:38.531Z,1.40
2018-02-20T09:51:06.319Z,1.60
2018-02-20T09:53:33.792Z,1.50
2018-02-20T09:56:01.265Z,1.60
2018-02-20T09:58:30.496Z,2.00
2018-02-20T10:00:58.120Z,2.00
2018-02-20T10:03:28.783Z,2.00
2018-02-20T10:05:59.295Z,2.00
2018-02-20T10:08:26.822Z,1.90
2018-02-20T10:10:55.183Z,1.60
2018-02-20T10:13:22.601Z,1.60
2018-02-20T10:15:50.046Z,1.60
2018-02-20T10:18:22.145Z,1.60
2018-02-20T10:20:49.630Z,1.80
2018-02-20T10:23:17.342Z,1.90
2018-02-20T10:25:44.756Z,2.10
2018-02-20T10:28:12.421Z,2.10
2018-02-20T10:30:40.033Z,2.20
2018-02-20T10:33:12.099Z,2.20
2018-02-20T10:35:39.560Z,2.30
2018-02-20T10:38:07.020Z,2.30
2018-02-20T10:40:34.467Z,2.20
2018-02-20T10:43:01.931Z,2.30
2018-02-20T10:45:29.379Z,2.40
2018-02-20T10:47:56.835Z,2.50
2018-02-20T10:50:24.289Z,2.70
2018-02-20T10:52:51.820Z,2.90
2018-02-20T10:55:19.367Z,2.90
2018-02-20T10:57:47.481Z,2.80
2018-02-20T11:00:15.002Z,2.80
2018-02-20T11:02:42.457Z,2.60
2018-02-20T11:05:09.940Z,2.70
2018-02-20T11:07:37.408Z,2.70
2018-02-20T11:10:04.892Z,2.70
2018-02-20T11:12:32.328Z,3.00
2018-02-20T11:15:00.705Z,3.20
2018-02-20T11:17:28.172Z,3.30
2018-02-20T11:19:55.639Z,3.30
2018-02-20T11:22:23.097Z,3.40
2018-02-20T11:24:50.538Z,3.30
2018-02-20T11:27:18.199Z,3.50
2018-02-20T11:29:45.768Z,3.40
2018-02-20T11:32:13.216Z,3.20
2018-02-20T11:34:51.186Z,3.10
2018-02-20T11:37:18.780Z,3.10
2018-02-20T11:39:46.294Z,3.20
2018-02-20T11:42:13.756Z,3.20
2018-02-20T11:44:41.211Z,3.20
2018-02-20T11:47:08.692Z,3.10
2018-02-20T11:49:36.420Z,3.00
2018-02-20T11:52:04.563Z,3.00
2018-02-20T11:54:32.046Z,3.20
2018-02-20T11:56:59.532Z,3.40
2018-02-20T11:59:26.994Z,3.40
2018-02-20T12:01:54.560Z,3.50
2018-02-20T12:04:22.084Z,3.30
2018-02-20T12:06:49.519Z,3.20
2018-02-20T12:09:18.836Z,2.90
2018-02-20T12:11:46.311Z,2.90
2018-02-20T12:14:13.792Z,2.80
2018-02-20T12:16:41.425Z,2.60
2018-02-20T12:19:08.904Z,2.50
2018-02-20T12:21:37.052Z,2.20
2018-02-20T12:24:04.505Z,2.20
2018-02-20T12:26:32.004Z,2.10
2018-02-20T12:28:59.478Z,2.00
2018-02-20T12:31:26.985Z,2.00
2018-02-20T12:33:54.440Z,1.90
2018-02-20T12:36:25.824Z,1.90
2018-02-20T12:38:53.293Z,1.90
2018-02-20T12:41:21.081Z,1.80
2018-02-20T12:43:48.619Z,1.70
2018-02-20T12:46:16.072Z,1.50
2018-02-20T12:48:43.543Z,1.50
2018-02-20T12:51:11.771Z,1.40
2018-02-20T12:53:39.329Z,1.40
2018-02-20T12:56:06.724Z,1.40
2018-02-20T12:58:35.076Z,1.30
2018-02-20T13:01:02.528Z,1.30
2018-02-20T13:03:30.039Z,1.30
2018-02-20T13:05:57.476Z,1.20
2018-02-20T13:08:24.920Z,1.20
2018-02-20T13:10:52.592Z,1.20
2018-02-20T13:13:20.170Z,1.30
2018-02-20T13:15:48.575Z,1.30
2018-02-20T13:18:16.037Z,1.20
2018-02-20T13:20:43.737Z,1.30
2018-02-20T13:23:11.221Z,1.40
2018-02-20T13:25:38.689Z,1.40
2018-02-20T13:28:06.184Z,1.50
2018-02-20T13:30:33.902Z,1.50
2018-02-20T13:33:01.360Z,1.60
2018-02-20T13:35:28.811Z,1.50
2018-02-20T13:37:57.998Z,1.40
2018-02-20T13:40:25.469Z,1.40
2018-02-20T13:42:52.913Z,1.40
2018-02-20T13:45:20.468Z,1.40
2018-02-20T13:47:49.429Z,1.40
2018-02-20T13:50:16.923Z,1.40
2018-02-20T13:52:44.597Z,1.50
2018-02-20T13:55:12.854Z,1.50
2018-02-20T13:57:41.084Z,1.50
2018-02-20T14:00:08.537Z,1.50
2018-02-20T14:02:36.021Z,1.50
2018-02-20T14:05:03.477Z,1.40
2018-02-20T14:07:30.976Z,1.40
2018-02-20T14:09:58.510Z,1.30
2018-02-20T14:12:26.510Z,1.20
2018-02-20T14:14:54.559Z,1.20
2018-02-20T14:17:22.307Z,1.20
2018-02-20T14:19:49.808Z,1.30
2018-02-20T14:22:17.515Z,1.20
2018-02-20T14:24:45.002Z,1.30
2018-02-20T14:27:14.914Z,1.40
2018-02-20T14:29:42.401Z,1.40
2018-02-20T14:32:09.980Z,1.40
2018-02-20T14:34:38.368Z,1.40
2018-02-20T14:37:05.817Z,1.40
2018-02-20T14:39:36.502Z,1.40
2018-02-20T14:42:04.016Z,1.40
2018-02-20T14:44:31.469Z,1.40
2018-02-20T14:46:58.949Z,1.40
2018-02-20T14:49:26.419Z,1.40
2018-02-20T14:51:53.904Z,1.40
2018-02-20T14:54:23.052Z,1.50
2018-02-20T14:56:50.512Z,1.50
2018-02-20T14:59:17.988Z,1.50
2018-02-20T15:01:45.478Z,1.40
2018-02-20T15:04:12.977Z,1.40
2018-02-20T15:06:40.441Z,1.40
2018-02-20T15:09:12.420Z,1.40
2018-02-20T15:11:39.876Z,1.40
2018-02-20T15:14:07.329Z,1.40
2018-02-20T15:16:34.799Z,1.40
2018-02-20T15:19:02.264Z,1.40
2018-02-20T15:21:29.997Z,1.30
2018-02-20T15:24:01.355Z,1.30
2018-02-20T15:26:28.975Z,1.30
2018-02-20T15:28:56.617Z,1.30
2018-02-20T15:31:24.065Z,1.20
2018-02-20T15:33:52.325Z,1.10
2018-02-20T15:36:19.799Z,1.10
2018-02-20T15:38:51.132Z,1.00
2018-02-20T15:41:18.607Z,1.00
2018-02-20T15:43:46.132Z,1.00
2018-02-20T15:46:13.601Z,1.10
2018-02-20T15:48:41.173Z,1.20
2018-02-20T15:51:10.361Z,1.00
2018-02-20T15:53:37.818Z,1.00
2018-02-20T15:56:05.329Z,1.00
2018-02-20T15:58:32.761Z,1.10
2018-02-20T16:01:01.041Z,1.00
2018-02-20T16:03:28.526Z,1.00
2018-02-20T16:05:56.125Z,0.90
2018-02-20T16:08:24.365Z,0.90
2018-02-20T16:10:55.429Z,0.90
2018-02-20T16:13:22.912Z,0.90
2018-02-20T16:18:49.761Z,0.80
2018-02-20T16:21:17.208Z,0.80
2018-02-20T16:23:45.456Z,0.80
2018-02-20T16:26:17.987Z,0.70
2018-02-20T16:28:45.461Z,0.70
2018-02-20T16:31:12.960Z,0.60
2018-02-20T16:33:40.505Z,0.60
2018-02-20T16:36:07.936Z,0.60
2018-02-20T16:38:35.387Z,0.70
2018-02-20T16:41:06.692Z,0.70
2018-02-20T16:43:34.207Z,0.60
2018-02-20T16:46:01.732Z,0.50
2018-02-20T16:48:29.983Z,0.40
2018-02-20T16:50:58.376Z,0.40
2018-02-20T16:53:25.850Z,0.40
2018-02-20T16:55:53.603Z,0.40
2018-02-20T16:58:21.071Z,0.30
2018-02-20T17:00:48.576Z,0.30
2018-02-20T17:03:16.016Z,0.30
2018-02-20T17:05:43.543Z,0.30
2018-02-20T17:08:10.985Z,0.20
2018-02-20T17:10:38.734Z,0.20
2018-02-20T17:13:07.624Z,0.10
2018-02-20T17:15:35.144Z,0.10
2018-02-20T17:18:02.575Z,0.10
2018-02-20T17:20:31.737Z,0.20
2018-02-20T17:22:59.188Z,0.10
2018-02-20T17:25:30.006Z,0.10
2018-02-20T17:31:28.014Z,0.00
2018-02-20T17:33:55.486Z,0.00
2018-02-20T17:36:22.940Z,0.00
2018-02-20T17:38:50.438Z,0.10
2018-02-20T17:41:17.914Z,0.00
2018-02-20T17:43:45.960Z,0.00
2018-02-20T17:46:13.458Z,0.00
2018-02-20T17:48:40.917Z,0.00
2018-02-20T17:51:08.386Z,-0.10
2018-02-20T17:53:36.048Z,-0.10
2018-02-20T17:56:06.901Z,-0.10
2018-02-20T17:58:36.975Z,-0.20
2018-02-20T18:01:05.394Z,-0.30
2018-02-20T18:03:32.868Z,-0.30
2018-02-20T18:06:00.371Z,-0.40
2018-02-20T18:08:27.845Z,-0.40
2018-02-20T18:10:59.309Z,-0.40
2018-02-20T18:13:26.793Z,-0.50
2018-02-20T18:15:54.995Z,-0.50
2018-02-20T18:18:22.520Z,-0.60
2018-02-20T18:20:50.021Z,-0.60
2018-02-20T18:23:17.513Z,-0.60
2018-02-20T18:25:44.996Z,-0.70
2018-02-20T18:28:12.439Z,-0.80
2018-02-20T18:30:39.926Z,-0.80
2018-02-20T18:33:07.380Z,-0.80
2018-02-20T18:35:34.886Z,-0.80
2018-02-20T18:38:02.401Z,-0.80
2018-02-20T18:40:30.629Z,-0.80
2018-02-20T18:42:58.119Z,-0.80
2018-02-20T18:45:25.576Z,-0.90
2018-02-20T18:47:53.047Z,-1.00
2018-02-20T18:50:20.788Z,-1.00
2018-02-20T18:52:48.242Z,-1.00
2018-02-20T18:55:18.145Z,-0.90
2018-02-20T18:57:45.902Z,-0.90
2018-02-20T19:00:13.488Z,-0.90
2018-02-20T19:02:40.959Z,-0.80
2018-02-20T19:05:08.464Z,-0.70
2018-02-20T19:07:36.540Z,-0.70
2018-02-20T19:10:04.053Z,-0.80
2018-02-20T19:12:32.275Z,-0.80
2018-02-20T19:14:59.788Z,-0.70
2018-02-20T19:17:28.369Z,-0.90
2018-02-20T19:19:55.831Z,-0.90
2018-02-20T19:22:23.287Z,-0.90
2018-02-20T19:24:50.789Z,-1.00
2018-02-20T19:27:18.259Z,-1.10
2018-02-20T19:29:45.725Z,-1.00
2018-02-20T19:32:13.200Z,-1.00
2018-02-20T19:34:41.572Z,-1.00
2018-02-20T19:37:09.445Z,-1.00
2018-02-20T19:39:37.094Z,-0.90
2018-02-20T19:42:04.596Z,-0.90
2018-02-20T19:44:32.140Z,-0.90
2018-02-20T19:46:59.589Z,-0.90
2018-02-20T19:49:27.050Z,-1.00
2018-02-20T19:51:54.492Z,-1.00
2018-02-20T19:54:22.709Z,-1.10
2018-02-20T19:56:50.198Z,-1.10
2018-02-20T19:59:17.689Z,-1.10
2018-02-20T20:01:45.217Z,-1.10
2018-02-20T20:04:12.676Z,-1.10
2018-02-20T20:06:40.160Z,-1.10
2018-02-20T20:09:08.429Z,-1.20
2018-02-20T20:11:36.993Z,-1.10
2018-02-20T20:14:04.464Z,-1.10
2018-02-20T20:16:32.134Z,-1.10
2018-02-20T20:19:00.566Z,-1.10
2018-02-20T20:21:28.018Z,-1.10
2018-02-20T20:23:55.874Z,-1.30
2018-02-20T20:26:23.313Z,-1.40
2018-02-20T20:28:58.605Z,-1.40
2018-02-20T20:31:26.480Z,-1.50
2018-02-20T20:33:53.937Z,-1.50
2018-02-20T20:36:21.428Z,-1.50
2018-02-20T20:38:49.668Z,-1.60
2018-02-20T20:41:17.469Z,-1.60
2018-02-20T20:43:46.617Z,-1.70
2018-02-20T20:46:14.077Z,-1.70
2018-02-20T20:48:41.561Z,-1.80
2018-02-20T20:51:09.031Z,-1.70
2018-02-20T20:53:37.267Z,-1.80
2018-02-20T20:56:04.753Z,-1.80
2018-02-20T20:58:35.918Z,-1.80
2018-02-20T21:01:03.418Z,-1.80
2018-02-20T21:03:30.865Z,-1.80
2018-02-20T21:05:58.305Z,-1.90
2018-02-20T21:08:26.000Z,-2.00
2018-02-20T21:10:54.198Z,-2.00
2018-02-20T21:13:21.680Z,-2.10
2018-02-20T21:15:50.469Z,-2.20
2018-02-20T21:18:17.948Z,-2.20
2018-02-20T21:20:45.392Z,-2.30
2018-02-20T21:23:14.630Z,-2.50
2018-02-20T21:25:42.092Z,-2.50
2018-02-20T21:28:09.575Z,-2.50
2018-02-20T21:30:38.722Z,-2.50
2018-02-20T21:33:06.234Z,-2.50
2018-02-20T21:35:34.455Z,-2.50
2018-02-20T21:38:01.973Z,-2.50
2018-02-20T21:40:29.499Z,-2.60
2018-02-20T21:42:56.952Z,-2.70
2018-02-20T21:45:28.001Z,-2.70
2018-02-20T21:47:55.477Z,-2.70
2018-02-20T21:50:24.440Z,-2.70
2018-02-20T21:52:53.746Z,-2.70
2018-02-20T21:55:21.200Z,-2.70
2018-02-20T21:57:48.665Z,-2.70
2018-02-20T22:00:20.416Z,-2.70
2018-02-20T22:02:48.114Z,-2.70
2018-02-20T22:05:15.585Z,-2.70
2018-02-20T22:07:43.102Z,-2.80
2018-02-20T22:10:11.743Z,-2.90
2018-02-20T22:12:39.231Z,-3.00
2018-02-20T22:15:11.014Z,-2.80
2018-02-20T22:17:42.446Z,-2.90
2018-02-20T22:20:09.933Z,-2.90
2018-02-20T22:22:38.872Z,-2.90
2018-02-20T22:25:06.329Z,-2.90
2018-02-20T22:27:33.829Z,-2.80
2018-02-20T22:30:04.753Z,-2.80
2018-02-20T22:32:32.692Z,-2.80
2018-02-20T22:35:00.146Z,-2.90
2018-02-20T22:37:27.638Z,-3.00
2018-02-20T22:39:55.118Z,-3.10
2018-02-20T22:42:22.587Z,-3.20
2018-02-20T22:44:50.232Z,-3.30
2018-02-20T22:47:17.718Z,-3.30
2018-02-20T22:49:45.161Z,-3.30
2018-02-20T22:52:12.631Z,-3.30
2018-02-20T22:54:41.053Z,-3.30
2018-02-20T22:57:08.535Z,-3.30
2018-02-20T22:59:35.976Z,-3.40
2018-02-20T23:02:03.453Z,-3.30
2018-02-20T23:04:30.909Z,-3.30
2018-02-20T23:06:58.670Z,-3.30
2018-02-20T23:09:26.197Z,-3.40
2018-02-20T23:11:53.766Z,-3.40
2018-02-20T23:14:21.244Z,-3.40
2018-02-20T23:16:49.156Z,-3.40
2018-02-20T23:19:16.656Z,-3.40
2018-02-20T23:21:44.106Z,-3.40
2018-02-20T23:24:11.567Z,-3.40
2018-02-20T23:26:39.048Z,-3.40
2018-02-20T23:29:06.524Z,-3.40
2018-02-20T23:31:39.065Z,-3.40
2018-02-20T23:34:06.522Z,-3.40
2018-02-20T23:36:33.989Z,-3.40
2018-02-20T23:39:01.469Z,-3.50
2018-02-20T23:41:29.688Z,-3.50
2018-02-20T23:43:58.101Z,-3.50
2018-02-20T23:46:29.954Z,-3.50
2018-02-20T23:48:57.481Z,-3.60
2018-02-20T23:51:30.643Z,-3.60
2018-02-20T23:53:59.046Z,-3.60
2018-02-20T23:56:26.509Z,-3.60
2018-02-20T23:58:53.972Z,-3.60
